createdAt,value
2018-12-22T00:01:11.423Z,76.07
2018-12-22T00:03:40.563Z,82.30
2018-12-22T00:06:09.861Z,76.80
2018-12-22T00:08:38.893Z,77.90
2018-12-22T00:11:07.921Z,69.37
2018-12-22T00:13:36.945Z,77.53
2018-12-22T00:16:06.297Z,82.77
2018-12-22T00:18:35.302Z,79.23
2018-12-22T00:21:04.578Z,82.43
2018-12-22T00:23:33.654Z,82.27
2018-12-22T00:26:02.795Z,79.77
2018-12-22T00:28:31.861Z,76.00
2018-12-22T00:31:00.924Z,85.37
2018-12-22T00:33:29.962Z,80.37
2018-12-22T00:35:58.973Z,80.00
2018-12-22T00:38:28.049Z,80.27
2018-12-22T00:40:57.173Z,82.80
2018-12-22T00:43:26.198Z,74.60
2018-12-22T00:45:55.195Z,77.67
2018-12-22T00:48:24.259Z,75.70
2018-12-22T00:50:53.731Z,71.27
2018-12-22T00:53:22.873Z,76.97
2018-12-22T00:55:51.937Z,78.03
2018-12-22T00:58:30.526Z,76.30
2018-12-22T01:00:53.525Z,72.33
2018-12-22T01:03:22.709Z,71.97
2018-12-22T01:05:51.853Z,77.90
2018-12-22T01:08:20.913Z,80.60
2018-12-22T01:10:49.919Z,78.73
2018-12-22T01:13:19.090Z,77.83
2018-12-22T01:15:48.381Z,77.57
2018-12-22T01:18:17.738Z,71.73
2018-12-22T01:20:46.758Z,82.47
2018-12-22T01:23:16.033Z,71.93
2018-12-22T01:25:45.362Z,75.83
2018-12-22T01:28:20.934Z,74.57
2018-12-22T01:30:49.942Z,71.90
2018-12-22T01:33:18.952Z,78.30
2018-12-22T01:35:48.038Z,66.70
2018-12-22T01:38:17.058Z,68.77
2018-12-22T01:40:46.113Z,75.20
2018-12-22T01:43:15.362Z,70.40
2018-12-22T01:45:44.367Z,71.70
2018-12-22T01:48:13.490Z,70.93
2018-12-22T01:50:42.515Z,69.97
2018-12-22T01:53:11.554Z,69.17
2018-12-22T01:55:40.646Z,65.23
2018-12-22T01:58:10.166Z,65.87
2018-12-22T02:00:39.535Z,69.23
2018-12-22T02:03:08.555Z,62.57
2018-12-22T02:05:37.619Z,62.97
2018-12-22T02:08:06.818Z,65.10
2018-12-22T02:10:35.801Z,66.67
2018-12-22T02:13:05.150Z,62.47
2018-12-22T02:15:34.149Z,62.90
2018-12-22T02:18:03.226Z,57.03
2018-12-22T02:20:32.401Z,62.20
2018-12-22T02:23:01.506Z,59.57
2018-12-22T02:25:30.538Z,60.63
2018-12-22T02:27:59.586Z,60.20
2018-12-22T02:30:28.620Z,59.23
2018-12-22T02:32:57.760Z,61.70
2018-12-22T02:35:26.778Z,57.53
2018-12-22T02:37:55.823Z,56.97
2018-12-22T02:40:24.914Z,54.07
2018-12-22T02:42:54.363Z,54.40
2018-12-22T02:45:23.433Z,52.83
2018-12-22T02:47:52.870Z,54.13
2018-12-22T02:50:21.878Z,56.37
2018-12-22T02:52:50.902Z,54.10
2018-12-22T02:55:19.959Z,63.07
2018-12-22T02:57:49.016Z,55.53
2018-12-22T03:00:18.159Z,56.43
2018-12-22T03:02:47.398Z,51.77
2018-12-22T03:05:17.272Z,51.70
2018-12-22T03:07:46.282Z,53.70
2018-12-22T03:10:16.278Z,49.00
2018-12-22T03:12:45.584Z,52.00
2018-12-22T03:15:14.674Z,53.00
2018-12-22T03:17:43.698Z,46.87
2018-12-22T03:20:12.714Z,53.23
2018-12-22T03:22:41.862Z,50.80
2018-12-22T03:25:11.122Z,45.00
2018-12-22T03:27:40.297Z,49.67
2018-12-22T03:30:09.416Z,52.87
2018-12-22T03:32:38.715Z,52.40
2018-12-22T03:35:08.095Z,51.40
2018-12-22T03:37:37.138Z,45.70
2018-12-22T03:40:08.173Z,46.17
2018-12-22T03:42:37.212Z,45.40
2018-12-22T03:45:06.613Z,43.63
2018-12-22T03:47:35.688Z,43.23
2018-12-22T03:50:05.010Z,43.27
2018-12-22T03:52:34.077Z,42.23
2018-12-22T03:57:38.339Z,39.47
2018-12-22T04:00:07.799Z,42.77
2018-12-22T04:02:37.070Z,38.67
2018-12-22T04:05:07.362Z,41.30
2018-12-22T04:07:36.706Z,36.77
2018-12-22T04:10:06.533Z,33.93
2018-12-22T04:12:35.694Z,34.10
2018-12-22T04:15:07.795Z,36.63
2018-12-22T04:17:36.809Z,30.83
2018-12-22T04:20:07.008Z,28.03
2018-12-22T04:22:36.104Z,27.53
2018-12-22T04:25:05.178Z,26.23
2018-12-22T04:27:34.434Z,25.97
2018-12-22T04:30:04.929Z,23.83
2018-12-22T04:32:33.976Z,23.90
2018-12-22T04:35:03.220Z,23.73
2018-12-22T04:37:32.289Z,22.53
2018-12-22T04:40:01.535Z,23.00
2018-12-22T04:42:30.602Z,25.67
2018-12-22T04:44:59.642Z,22.47
2018-12-22T04:47:28.767Z,22.57
2018-12-22T04:49:57.758Z,26.27
2018-12-22T04:52:27.083Z,21.97
2018-12-22T04:54:56.113Z,25.37
2018-12-22T04:57:25.618Z,26.63
2018-12-22T04:59:54.634Z,24.73
2018-12-22T05:02:23.659Z,23.20
2018-12-22T05:04:53.017Z,23.13
2018-12-22T05:07:22.113Z,22.20
2018-12-22T05:09:51.251Z,21.57
2018-12-22T05:12:20.336Z,24.47
2018-12-22T05:14:49.349Z,23.97
2018-12-22T05:17:18.448Z,22.47
2018-12-22T05:19:47.542Z,23.57
2018-12-22T05:22:16.734Z,22.97
2018-12-22T05:24:45.805Z,26.97
2018-12-22T05:27:15.366Z,23.67
2018-12-22T05:29:51.549Z,22.17
2018-12-22T05:32:15.506Z,21.80
2018-12-22T05:34:44.507Z,20.53
2018-12-22T05:37:13.583Z,21.23
2018-12-22T05:39:42.642Z,23.60
2018-12-22T05:42:11.682Z,24.47
2018-12-22T05:44:40.810Z,19.50
2018-12-22T05:47:09.848Z,27.07
2018-12-22T05:49:39.170Z,20.77
2018-12-22T05:52:08.238Z,20.73
2018-12-22T05:54:37.248Z,24.07
2018-12-22T05:57:06.298Z,22.07
2018-12-22T05:59:35.393Z,24.13
2018-12-22T06:02:04.529Z,22.43
2018-12-22T06:04:33.558Z,23.50
2018-12-22T06:07:02.650Z,23.00
2018-12-22T06:09:31.704Z,27.20
2018-12-22T06:12:01.387Z,24.77
2018-12-22T06:14:30.429Z,19.60
2018-12-22T06:16:59.482Z,25.13
2018-12-22T06:19:28.596Z,22.00
2018-12-22T06:21:57.652Z,22.63
2018-12-22T06:24:27.189Z,22.97
2018-12-22T06:26:56.299Z,22.47
2018-12-22T06:29:25.506Z,21.93
2018-12-22T06:31:54.547Z,20.03
2018-12-22T06:34:23.558Z,18.33
2018-12-22T06:36:52.598Z,19.80
2018-12-22T06:39:23.706Z,20.03
2018-12-22T06:41:53.170Z,17.97
2018-12-22T06:44:22.512Z,18.90
2018-12-22T06:46:51.590Z,19.63
2018-12-22T06:49:20.599Z,16.57
2018-12-22T06:51:56.124Z,22.40
2018-12-22T06:54:25.180Z,22.10
2018-12-22T06:56:54.244Z,18.80
2018-12-22T06:59:24.090Z,21.53
2018-12-22T07:01:53.109Z,19.43
2018-12-22T07:04:22.246Z,28.87
2018-12-22T07:06:51.336Z,24.93
2018-12-22T07:09:20.435Z,20.87
2018-12-22T07:11:49.644Z,24.90
2018-12-22T07:14:18.763Z,19.63
2018-12-22T07:16:48.008Z,16.70
2018-12-22T07:19:17.679Z,19.90
2018-12-22T07:21:46.738Z,20.23
2018-12-22T07:24:15.921Z,22.53
2018-12-22T07:26:44.976Z,19.13
2018-12-22T07:29:14.073Z,22.97
2018-12-22T07:31:46.908Z,19.90
2018-12-22T07:34:15.953Z,19.07
2018-12-22T07:36:45.165Z,20.23
2018-12-22T07:39:14.585Z,20.57
2018-12-22T07:41:43.669Z,20.60
2018-12-22T07:44:12.851Z,20.90
2018-12-22T07:46:42.403Z,17.97
2018-12-22T07:49:11.437Z,18.17
2018-12-22T07:51:40.465Z,22.90
2018-12-22T07:54:09.670Z,17.43
2018-12-22T07:56:38.983Z,17.60
2018-12-22T07:59:07.983Z,15.70
2018-12-22T08:01:37.027Z,19.53
2018-12-22T08:04:06.286Z,19.23
2018-12-22T08:06:35.282Z,18.03
2018-12-22T08:09:06.797Z,18.47
2018-12-22T08:11:36.014Z,19.73
2018-12-22T08:14:05.193Z,18.17
2018-12-22T08:16:34.310Z,18.73
2018-12-22T08:19:03.369Z,18.07
2018-12-22T08:21:32.599Z,17.57
2018-12-22T08:24:01.956Z,14.47
2018-12-22T08:26:31.249Z,14.80
2018-12-22T08:29:00.354Z,17.30
2018-12-22T08:31:29.493Z,17.57
2018-12-22T08:33:58.526Z,18.77
2018-12-22T08:36:27.919Z,22.97
2018-12-22T08:38:56.914Z,15.03
2018-12-22T08:41:26.067Z,19.83
2018-12-22T08:43:55.257Z,19.30
2018-12-22T08:46:24.483Z,15.80
2018-12-22T08:48:53.709Z,20.67
2018-12-22T08:51:22.888Z,16.80
2018-12-22T08:53:52.068Z,15.53
2018-12-22T08:56:21.093Z,19.47
2018-12-22T08:58:50.294Z,16.67
2018-12-22T09:01:20.110Z,20.40
2018-12-22T09:03:49.162Z,19.90
2018-12-22T09:06:18.203Z,20.93
2018-12-22T09:08:47.398Z,17.80
2018-12-22T09:11:16.442Z,22.83
2018-12-22T09:13:45.652Z,20.17
2018-12-22T09:16:14.767Z,19.53
2018-12-22T09:18:43.836Z,18.90
2018-12-22T09:21:12.922Z,18.97
2018-12-22T09:23:42.026Z,19.83
2018-12-22T09:26:11.081Z,16.80
2018-12-22T09:28:40.391Z,16.87
2018-12-22T09:31:09.610Z,18.17
2018-12-22T09:33:38.689Z,18.70
2018-12-22T09:36:07.733Z,17.23
2018-12-22T09:38:36.739Z,15.27
2018-12-22T09:41:05.733Z,16.87
2018-12-22T09:43:34.767Z,17.20
2018-12-22T09:46:03.749Z,14.33
2018-12-22T09:48:33.111Z,17.73
2018-12-22T09:51:02.110Z,13.93
2018-12-22T09:53:31.132Z,16.27
2018-12-22T09:56:00.464Z,11.87
2018-12-22T09:58:29.521Z,7.90
2018-12-22T10:00:58.581Z,11.97
2018-12-22T10:03:27.703Z,12.53
2018-12-22T10:05:56.923Z,9.17
2018-12-22T10:08:25.974Z,10.47
2018-12-22T10:10:55.001Z,9.43
2018-12-22T10:13:24.252Z,7.23
2018-12-22T10:15:59.661Z,9.93
2018-12-22T10:18:35.283Z,9.27
2018-12-22T10:21:04.302Z,6.50
2018-12-22T10:23:33.399Z,6.60
2018-12-22T10:26:02.416Z,9.00
2018-12-22T10:28:31.559Z,7.00
2018-12-22T10:31:00.573Z,5.40
2018-12-22T10:33:29.629Z,6.90
2018-12-22T10:36:08.078Z,5.37
2018-12-22T10:38:37.137Z,5.03
2018-12-22T10:41:06.354Z,8.57
2018-12-22T10:43:35.408Z,3.97
2018-12-22T10:46:04.627Z,5.87
2018-12-22T10:48:33.956Z,6.73
2018-12-22T10:51:03.020Z,5.50
2018-12-22T10:53:32.105Z,4.80
2018-12-22T10:56:01.175Z,3.57
2018-12-22T10:58:30.333Z,4.80
2018-12-22T11:01:00.405Z,5.70
2018-12-22T11:03:29.476Z,2.30
2018-12-22T11:05:58.499Z,5.67
2018-12-22T11:08:28.565Z,2.90
2018-12-22T11:10:57.916Z,2.67
2018-12-22T11:13:26.955Z,3.53
2018-12-22T11:15:56.007Z,3.87
2018-12-22T11:18:25.052Z,3.63
2018-12-22T11:20:55.274Z,4.93
2018-12-22T11:23:25.470Z,6.43
2018-12-22T11:25:54.978Z,4.97
2018-12-22T11:28:24.067Z,5.70
2018-12-22T11:30:53.120Z,6.13
2018-12-22T11:33:22.290Z,4.67
2018-12-22T11:35:51.446Z,6.73
2018-12-22T11:38:20.762Z,6.43
2018-12-22T11:40:49.874Z,8.60
2018-12-22T11:43:18.976Z,7.97
2018-12-22T11:45:48.340Z,7.13
2018-12-22T11:48:31.328Z,8.80
2018-12-22T11:51:00.422Z,6.70
2018-12-22T11:53:29.582Z,9.73
2018-12-22T11:55:58.669Z,6.70
2018-12-22T11:58:28.073Z,6.80
2018-12-22T12:00:57.401Z,8.90
2018-12-22T12:03:26.490Z,9.30
2018-12-22T12:05:55.547Z,9.70
2018-12-22T12:08:26.164Z,8.20
2018-12-22T12:10:57.418Z,7.07
2018-12-22T12:13:27.849Z,6.17
2018-12-22T12:16:18.869Z,6.47
2018-12-22T12:18:54.830Z,7.23
2018-12-22T12:21:23.883Z,4.90
2018-12-22T12:23:52.935Z,5.20
2018-12-22T12:26:22.555Z,5.93
2018-12-22T12:28:52.124Z,5.27
2018-12-22T12:31:21.998Z,7.33
2018-12-22T12:33:51.299Z,7.90
2018-12-22T12:36:20.434Z,5.83
2018-12-22T12:38:49.548Z,7.33
2018-12-22T12:41:18.588Z,5.57
2018-12-22T12:43:47.599Z,5.43
2018-12-22T12:46:16.888Z,7.10
2018-12-22T12:48:45.918Z,8.07
2018-12-22T12:51:15.890Z,4.43
2018-12-22T12:53:44.914Z,6.10
2018-12-22T12:56:17.972Z,6.83
2018-12-22T12:58:47.342Z,6.23
2018-12-22T13:01:16.678Z,6.37
2018-12-22T13:03:47.196Z,6.90
2018-12-22T13:06:18.300Z,8.07
2018-12-22T13:08:47.618Z,11.20
2018-12-22T13:11:23.603Z,7.17
2018-12-22T13:14:01.133Z,6.47
2018-12-22T13:16:30.935Z,8.27
2018-12-22T13:19:00.003Z,5.67
2018-12-22T13:21:29.609Z,8.33
2018-12-22T13:23:58.950Z,8.67
2018-12-22T13:26:36.558Z,7.80
2018-12-22T13:28:59.287Z,6.53
2018-12-22T13:31:29.962Z,8.07
2018-12-22T13:33:59.387Z,5.70
2018-12-22T13:36:34.615Z,6.97
2018-12-22T13:39:09.662Z,7.73
2018-12-22T13:41:38.745Z,7.73
2018-12-22T13:44:07.831Z,12.30
2018-12-22T13:46:36.861Z,8.23
2018-12-22T13:49:06.173Z,9.73
2018-12-22T13:51:35.886Z,8.93
2018-12-22T13:54:05.165Z,7.50
2018-12-22T13:56:34.626Z,7.03
2018-12-22T13:59:04.060Z,6.57
2018-12-22T14:01:37.337Z,8.37
2018-12-22T14:04:06.653Z,6.80
2018-12-22T14:06:41.081Z,9.67
2018-12-22T14:09:11.052Z,7.97
2018-12-22T14:11:41.253Z,7.40
2018-12-22T14:14:15.258Z,9.73
2018-12-22T14:16:53.385Z,7.90
2018-12-22T14:19:22.664Z,6.70
2018-12-22T14:21:52.013Z,6.83
2018-12-22T14:24:32.393Z,7.63
2018-12-22T14:27:01.679Z,8.10
2018-12-22T14:29:30.691Z,7.83
2018-12-22T14:32:00.004Z,6.33
2018-12-22T14:34:32.925Z,5.63
2018-12-22T14:37:02.326Z,5.77
2018-12-22T14:39:31.549Z,6.00
2018-12-22T14:42:00.733Z,7.53
2018-12-22T14:44:29.895Z,9.03
2018-12-22T14:46:59.097Z,7.87
2018-12-22T14:49:28.393Z,8.03
2018-12-22T14:51:57.449Z,6.57
2018-12-22T14:54:26.819Z,7.60
2018-12-22T14:57:02.529Z,6.93
2018-12-22T14:59:31.535Z,6.90
2018-12-22T15:02:01.583Z,6.47
2018-12-22T15:04:30.685Z,5.00
2018-12-22T15:06:59.993Z,4.90
2018-12-22T15:09:29.196Z,6.80
2018-12-22T15:11:58.592Z,6.23
2018-12-22T15:14:27.911Z,4.83
2018-12-22T15:16:57.258Z,6.07
2018-12-22T15:19:26.717Z,7.13
2018-12-22T15:21:58.157Z,5.73
2018-12-22T15:24:27.434Z,7.23
2018-12-22T15:26:56.565Z,7.20
2018-12-22T15:29:27.814Z,7.23
2018-12-22T15:31:57.208Z,6.80
2018-12-22T15:34:26.206Z,7.60
2018-12-22T15:36:57.106Z,8.60
2018-12-22T15:39:27.390Z,9.13
2018-12-22T15:41:56.918Z,11.57
2018-12-22T15:44:27.204Z,10.47
2018-12-22T15:46:57.170Z,12.00
2018-12-22T15:49:27.026Z,11.43
2018-12-22T15:51:57.036Z,13.70
2018-12-22T15:54:26.444Z,13.53
2018-12-22T15:56:55.720Z,12.00
2018-12-22T15:59:25.939Z,14.07
2018-12-22T16:01:55.985Z,11.20
2018-12-22T16:04:26.435Z,12.23
2018-12-22T16:06:56.209Z,12.33
2018-12-22T16:09:26.206Z,11.17
2018-12-22T16:11:56.056Z,13.40
2018-12-22T16:14:26.781Z,14.43
2018-12-22T16:16:56.175Z,13.57
2018-12-22T16:19:25.598Z,13.37
2018-12-22T16:21:55.648Z,12.90
2018-12-22T16:24:26.013Z,14.27
2018-12-22T16:26:56.262Z,13.03
2018-12-22T16:29:33.175Z,15.27
2018-12-22T16:32:02.902Z,16.10
2018-12-22T16:34:32.519Z,14.97
2018-12-22T16:37:02.733Z,18.83
2018-12-22T16:39:32.828Z,17.80
2018-12-22T16:42:02.955Z,17.57
2018-12-22T16:44:34.628Z,17.07
2018-12-22T16:47:04.930Z,15.23
2018-12-22T16:49:34.761Z,13.80
2018-12-22T16:52:04.157Z,16.93
2018-12-22T16:54:33.154Z,15.97
2018-12-22T16:57:02.230Z,16.17
2018-12-22T16:59:33.357Z,14.57
2018-12-22T17:02:41.609Z,19.67
2018-12-22T17:05:11.051Z,14.60
2018-12-22T17:07:46.913Z,14.40
2018-12-22T17:10:16.253Z,17.20
2018-12-22T17:12:45.593Z,14.50
2018-12-22T17:15:21.817Z,14.43
2018-12-22T17:17:47.149Z,13.30
2018-12-22T17:20:16.730Z,13.60
2018-12-22T17:22:56.703Z,12.30
2018-12-22T17:25:36.937Z,11.83
2018-12-22T17:28:06.220Z,11.50
2018-12-22T17:30:35.262Z,11.63
2018-12-22T17:33:04.367Z,9.33
2018-12-22T17:35:34.288Z,12.03
2018-12-22T17:38:04.352Z,9.77
2018-12-22T17:40:33.415Z,11.10
2018-12-22T17:43:03.674Z,12.07
2018-12-22T17:45:32.874Z,12.93
2018-12-22T17:48:02.258Z,12.47
2018-12-22T17:50:31.456Z,15.63
2018-12-22T17:53:00.554Z,12.80
2018-12-22T17:55:29.578Z,11.93
2018-12-22T17:57:58.715Z,12.73
2018-12-22T18:00:27.768Z,17.50
2018-12-22T18:02:56.924Z,11.27
2018-12-22T18:05:25.942Z,13.03
2018-12-22T18:07:55.145Z,14.77
2018-12-22T18:10:24.607Z,14.07
2018-12-22T18:12:53.704Z,14.33
2018-12-22T18:15:24.024Z,14.60
2018-12-22T18:17:53.093Z,13.13
2018-12-22T18:20:22.467Z,12.97
2018-12-22T18:22:51.466Z,15.00
2018-12-22T18:25:20.594Z,11.70
2018-12-22T18:27:49.718Z,11.20
2018-12-22T18:30:18.766Z,11.97
2018-12-22T18:32:48.359Z,11.23
2018-12-22T18:35:17.607Z,13.23
2018-12-22T18:37:46.693Z,13.87
2018-12-22T18:40:18.719Z,9.33
2018-12-22T18:42:48.059Z,11.50
2018-12-22T18:45:17.300Z,9.50
2018-12-22T18:47:46.387Z,11.83
2018-12-22T18:50:21.405Z,10.67
2018-12-22T18:52:50.976Z,10.57
2018-12-22T18:55:19.969Z,9.70
2018-12-22T18:57:52.014Z,9.63
2018-12-22T19:00:22.574Z,10.57
2018-12-22T19:02:52.469Z,10.60
2018-12-22T19:05:22.795Z,10.83
2018-12-22T19:07:56.620Z,12.87
2018-12-22T19:10:35.241Z,11.50
2018-12-22T19:13:04.570Z,11.60
2018-12-22T19:15:33.877Z,8.00
2018-12-22T19:18:02.963Z,9.23
2018-12-22T19:20:38.717Z,9.83
2018-12-22T19:23:08.619Z,9.63
2018-12-22T19:25:37.713Z,8.83
2018-12-22T19:28:06.753Z,9.53
2018-12-22T19:30:36.089Z,12.87
2018-12-22T19:33:05.304Z,9.30
2018-12-22T19:35:34.635Z,9.70
2018-12-22T19:38:03.685Z,13.30
2018-12-22T19:40:32.711Z,10.67
2018-12-22T19:43:01.759Z,11.30
2018-12-22T19:45:30.817Z,13.43
2018-12-22T19:47:59.867Z,11.47
2018-12-22T19:50:35.557Z,11.13
2018-12-22T19:53:04.899Z,14.13
2018-12-22T19:55:34.555Z,12.77
2018-12-22T19:58:03.886Z,10.40
2018-12-22T20:00:34.006Z,11.40
2018-12-22T20:03:04.323Z,12.57
2018-12-22T20:05:35.182Z,13.53
2018-12-22T20:08:04.731Z,13.93
2018-12-22T20:10:34.923Z,16.53
2018-12-22T20:13:04.243Z,15.10
2018-12-22T20:15:33.763Z,14.30
2018-12-22T20:18:03.965Z,11.17
2018-12-22T20:20:33.272Z,11.60
2018-12-22T20:23:03.531Z,12.10
2018-12-22T20:25:33.178Z,14.33
2018-12-22T20:28:02.449Z,10.57
2018-12-22T20:30:35.022Z,14.50
2018-12-22T20:33:08.635Z,14.17
2018-12-22T20:35:39.130Z,13.40
2018-12-22T20:38:09.103Z,12.27
2018-12-22T20:40:38.859Z,12.17
2018-12-22T20:43:09.036Z,13.93
2018-12-22T20:45:42.057Z,13.00
2018-12-22T20:48:14.563Z,14.37
2018-12-22T20:50:46.372Z,8.77
2018-12-22T20:53:18.730Z,13.40
2018-12-22T20:55:48.423Z,12.77
2018-12-22T20:58:18.888Z,17.23
2018-12-22T21:00:48.922Z,15.00
2018-12-22T21:03:22.279Z,11.50
2018-12-22T21:05:58.326Z,13.90
2018-12-22T21:08:27.616Z,13.00
2018-12-22T21:10:59.178Z,14.80
2018-12-22T21:13:28.362Z,15.33
2018-12-22T21:15:58.510Z,10.40
2018-12-22T21:18:27.638Z,11.77
2018-12-22T21:20:57.412Z,11.90
2018-12-22T21:23:28.262Z,12.00
2018-12-22T21:26:04.588Z,14.40
2018-12-22T21:28:35.206Z,11.67
2018-12-22T21:31:04.263Z,12.00
2018-12-22T21:33:35.785Z,10.50
2018-12-22T21:36:04.802Z,12.93
2018-12-22T21:38:34.201Z,11.63
2018-12-22T21:41:04.256Z,14.30
2018-12-22T21:43:33.811Z,14.90
2018-12-22T21:46:03.468Z,13.50
2018-12-22T21:48:34.941Z,18.03
2018-12-22T21:51:04.173Z,14.13
2018-12-22T21:53:33.658Z,16.63
2018-12-22T21:56:04.873Z,19.70
2018-12-22T21:58:33.900Z,17.83
2018-12-22T22:01:03.215Z,17.57
2018-12-22T22:03:32.522Z,15.00
2018-12-22T22:06:01.530Z,14.97
2018-12-22T22:08:30.792Z,19.13
2018-12-22T22:10:59.860Z,16.90
2018-12-22T22:13:29.184Z,16.17
2018-12-22T22:15:58.238Z,18.10
2018-12-22T22:18:27.321Z,16.60
2018-12-22T22:20:56.370Z,15.43
2018-12-22T22:23:25.381Z,19.87
2018-12-22T22:25:54.560Z,18.30
2018-12-22T22:28:23.576Z,17.47
2018-12-22T22:30:52.622Z,17.87
2018-12-22T22:33:21.712Z,20.90
2018-12-22T22:35:50.838Z,20.13
2018-12-22T22:38:19.948Z,19.97
2018-12-22T22:40:48.998Z,19.33
2018-12-22T22:43:18.082Z,19.20
2018-12-22T22:45:47.173Z,21.90
2018-12-22T22:48:16.260Z,21.13
2018-12-22T22:50:45.328Z,20.40
2018-12-22T22:53:14.561Z,24.67
2018-12-22T22:55:43.563Z,23.73
2018-12-22T22:58:12.816Z,25.93
2018-12-22T23:00:42.734Z,22.87
2018-12-22T23:03:12.034Z,22.10
2018-12-22T23:05:41.146Z,22.47
2018-12-22T23:08:10.290Z,22.83
2018-12-22T23:10:39.610Z,25.73
2018-12-22T23:13:08.699Z,27.70
2018-12-22T23:15:37.745Z,28.57
2018-12-22T23:18:07.353Z,23.97
2018-12-22T23:20:36.523Z,24.30
2018-12-22T23:23:05.773Z,24.33
2018-12-22T23:25:35.121Z,25.17
2018-12-22T23:28:04.140Z,25.50
2018-12-22T23:30:33.162Z,24.87
2018-12-22T23:33:02.193Z,26.77
2018-12-22T23:35:31.258Z,28.17
2018-12-22T23:38:00.401Z,27.47
2018-12-22T23:40:29.448Z,26.93
2018-12-22T23:42:58.474Z,24.33
2018-12-22T23:45:27.506Z,31.07
2018-12-22T23:47:56.638Z,24.20
2018-12-22T23:50:26.110Z,23.03
2018-12-22T23:52:55.267Z,23.87
2018-12-22T23:55:24.344Z,24.03
2018-12-22T23:57:54.764Z,19.60
